Randle, Washington

11:55 AM PDT on August 28, 2016 (GMT -0700)
RAWS | | Change Station

Elev 3000 ft 46.35 °N, 121.60 °W | Updated 46 minutes ago

Mostly Cloudy
Mostly Cloudy
75.0 °F
Feels Like 75.0 °F
N
2.0
Wind Variable Wind from SE
Gusts 5.0 mph

Today
High -- | Low -- °F
--% Chance of Precip.
Yesterday
High -- | Low -- °F
Precip. -- in
Pressure 30.08 in
Visibility -9999.0 miles
Clouds Mostly Cloudy 12000 ft
Dew Point 37.0 °F
Humidity 25%
Rainfall in
Snow Depth Not available.
6:22 AM 7:51 PM
Waning Crescent, 14% visible
METAR KPLU 281835Z AUTO 00000KT BKN120 19/12 A3008 RMK AO2
Pressure 30.08 in
Visibility -9999.0 miles
Clouds Mostly Cloudy 12000 ft
Dew Point 37.0 °F
Humidity 25%
Rainfall in
Snow Depth Not available.
6:22 AM 7:51 PM
Waning Crescent, 14% visible
METAR KPLU 281835Z AUTO 00000KT BKN120 19/12 A3008 RMK AO2

10-Day Weather Forecast

Almanac

Astronomy

Aug. 28, 2016 Rise Set
Actual Time
Civil Twilight
Nautical Twilight
Astronomical Twilight
Moon
Length of Visible Light
Length of Day
Tomorrow will be .
, % of the Moon is Illuminated

Today's Extremes

State Highs State Lows

Community

WunderPhotos

Upload Photos

1,935,647 photos uploaded!

WunderBlog® & News

Nearby

Air Quality

  Air Quality AQ Index Pollutant
Not available.

Snow Depth

Station Depth Elevation

Earthquake Activity

City Distance Mag. Time & Date
Minimum magnitude displayed is 2.5.

Coastal Water Temperatures

Place Temperature

Stations

Nearby Weather Stations

Station Location Temp. Windchill Dew Point Humidity Wind Precip. Elev Updated Type
                   

Watches & Warnings

There are currently no watches in effect.